createdAt,value
2022-09-23T00:01:27.524Z,101513.47
2022-09-23T00:03:53.823Z,101515.97
2022-09-23T00:06:22.592Z,101522.13
2022-09-23T00:08:49.107Z,101524.34
2022-09-23T00:11:16.132Z,101524.59
2022-09-23T00:13:43.566Z,101520.28
2022-09-23T00:16:10.427Z,101524.75
2022-09-23T00:18:36.825Z,101524.19
2022-09-23T00:21:03.297Z,101524.84
2022-09-23T00:23:31.155Z,101530.69
2022-09-23T00:25:57.804Z,101527.44
2022-09-23T00:28:24.147Z,101530.38
2022-09-23T00:30:50.508Z,101530.63
2022-09-23T00:33:16.937Z,101518.22
2022-09-23T00:35:43.211Z,101518.09
2022-09-23T00:38:09.499Z,101523.38
2022-09-23T00:40:42.087Z,101515.44
2022-09-23T00:43:10.100Z,101518.09
2022-09-23T00:45:36.417Z,101522.56
2022-09-23T00:48:02.969Z,101515.56
2022-09-23T00:50:31.100Z,101516.28
2022-09-23T00:52:59.233Z,101513.50
2022-09-23T00:55:27.795Z,101504.69
2022-09-23T00:57:56.363Z,101510.00
2022-09-23T01:00:22.903Z,101502.16
2022-09-23T01:02:49.547Z,101501.34
2022-09-23T01:05:16.396Z,101498.56
2022-09-23T01:07:42.879Z,101500.34
2022-09-23T01:10:10.503Z,101503.00
2022-09-23T01:12:48.190Z,101488.91
2022-09-23T01:15:18.310Z,101486.25
2022-09-23T01:17:48.827Z,101482.63
2022-09-23T01:20:25.723Z,101484.44
2022-09-23T01:22:58.640Z,101487.22
2022-09-23T01:25:33.256Z,101483.72
2022-09-23T01:28:17.449Z,101483.72
2022-09-23T01:30:48.016Z,101491.81
2022-09-23T01:33:18.561Z,101481.47
2022-09-23T01:35:54.288Z,101478.94
2022-09-23T01:38:24.610Z,101486.91
2022-09-23T01:40:53.944Z,101481.75
2022-09-23T01:43:22.508Z,101481.03
2022-09-23T01:45:52.365Z,101485.63
2022-09-23T01:48:21.263Z,101469.84
2022-09-23T01:50:51.322Z,101472.94
2022-09-23T01:53:20.619Z,101468.13
2022-09-23T01:55:49.138Z,101475.50
2022-09-23T01:58:18.826Z,101482.06
2022-09-23T02:00:49.714Z,101473.53
2022-09-23T02:03:19.990Z,101481.72
2022-09-23T02:05:48.225Z,101477.41
2022-09-23T02:08:17.496Z,101473.22
2022-09-23T02:10:45.000Z,101478.91
2022-09-23T02:13:14.695Z,101471.91
2022-09-23T02:15:44.509Z,101466.88
2022-09-23T02:18:13.910Z,101464.50
2022-09-23T02:20:43.079Z,101463.06
2022-09-23T02:23:11.412Z,101456.94
2022-09-23T02:25:39.587Z,101460.56
2022-09-23T02:28:08.900Z,101468.63
2022-09-23T02:30:40.335Z,101462.63
2022-09-23T02:33:08.286Z,101458.31
2022-09-23T02:35:36.665Z,101459.28
2022-09-23T02:38:07.128Z,101460.50
2022-09-23T02:40:36.239Z,101448.94
2022-09-23T02:43:05.889Z,101447.97
2022-09-23T02:45:32.474Z,101451.31
2022-09-23T02:48:01.346Z,101445.19
2022-09-23T02:50:27.610Z,101448.94
2022-09-23T02:52:54.314Z,101442.66
2022-09-23T02:55:25.207Z,101438.09
2022-09-23T02:57:51.526Z,101437.78
2022-09-23T03:00:17.883Z,101441.16
2022-09-23T03:03:05.208Z,101432.25
2022-09-23T03:05:34.650Z,101426.94
2022-09-23T03:08:10.068Z,101425.13
2022-09-23T03:10:43.379Z,101413.69
2022-09-23T03:13:13.298Z,101421.78
2022-09-23T03:15:45.228Z,101414.66
2022-09-23T03:18:15.498Z,101406.00
2022-09-23T03:20:44.995Z,101408.81
2022-09-23T03:23:13.642Z,101407.97
2022-09-23T03:25:42.467Z,101405.44
2022-09-23T03:28:09.647Z,101408.09
2022-09-23T03:30:36.485Z,101405.44
2022-09-23T03:33:03.308Z,101405.69
2022-09-23T03:35:31.516Z,101401.63
2022-09-23T03:38:01.091Z,101405.91
2022-09-23T03:40:29.460Z,101398.50
2022-09-23T03:42:58.602Z,101396.81
2022-09-23T03:45:27.169Z,101396.81
2022-09-23T03:47:53.503Z,101395.84
2022-09-23T03:50:19.794Z,101391.50
2022-09-23T03:52:46.054Z,101395.97
2022-09-23T03:55:12.314Z,101391.75
2022-09-23T03:57:38.586Z,101376.72
2022-09-23T04:00:07.329Z,101375.03
2022-09-23T04:02:33.700Z,101383.09
2022-09-23T04:05:00.067Z,101383.38
2022-09-23T04:07:26.354Z,101385.94
2022-09-23T04:09:52.703Z,101397.78
2022-09-23T04:12:19.158Z,101392.03
2022-09-23T04:14:45.590Z,101393.13
2022-09-23T04:17:13.200Z,101388.22
2022-09-23T04:19:39.483Z,101384.00
2022-09-23T04:22:06.112Z,101389.53
2022-09-23T04:24:32.404Z,101385.84
2022-09-23T04:26:58.656Z,101386.34
2022-09-23T04:29:25.446Z,101381.91
2022-09-23T04:31:52.279Z,101381.78
2022-09-23T04:34:20.429Z,101381.63
2022-09-23T04:36:47.363Z,101381.63
2022-09-23T04:39:14.179Z,101391.41
2022-09-23T04:41:40.586Z,101387.66
2022-09-23T04:44:07.080Z,101386.69
2022-09-23T04:46:33.392Z,101382.22
2022-09-23T04:48:59.867Z,101376.09
2022-09-23T04:51:27.786Z,101381.25
2022-09-23T04:53:54.843Z,101377.78
2022-09-23T04:56:22.590Z,101384.88
2022-09-23T04:58:49.411Z,101383.06
2022-09-23T05:01:16.388Z,101374.28
2022-09-23T05:03:43.442Z,101376.09
2022-09-23T05:06:10.627Z,101374.28
2022-09-23T05:08:38.239Z,101369.84
2022-09-23T05:11:05.031Z,101366.81
2022-09-23T05:13:31.349Z,101364.88
2022-09-23T05:15:58.095Z,101373.41
2022-09-23T05:18:24.414Z,101360.91
2022-09-23T05:20:52.568Z,101366.06
2022-09-23T05:23:18.843Z,101374.59
2022-09-23T05:25:46.451Z,101370.97
2022-09-23T05:28:12.721Z,101369.16
2022-09-23T05:30:38.974Z,101368.19
2022-09-23T05:33:05.252Z,101374.31
2022-09-23T05:35:31.511Z,101377.81
2022-09-23T05:37:57.768Z,101376.84
2022-09-23T05:40:24.165Z,101385.75
2022-09-23T05:42:51.804Z,101386.84
2022-09-23T05:45:18.096Z,101385.31
2022-09-23T05:47:44.374Z,101388.81
2022-09-23T05:50:10.634Z,101391.31
2022-09-23T05:52:36.928Z,101397.06
2022-09-23T05:55:03.393Z,101401.16
2022-09-23T05:57:29.667Z,101400.19
2022-09-23T05:59:57.261Z,101387.91
2022-09-23T06:02:23.611Z,101395.72
2022-09-23T06:04:49.975Z,101391.84
2022-09-23T06:07:16.239Z,101387.00
2022-09-23T06:09:42.506Z,101381.88
2022-09-23T06:12:08.771Z,101380.38
2022-09-23T06:14:35.047Z,101384.34
2022-09-23T06:17:02.662Z,101383.25
2022-09-23T06:19:28.946Z,101382.81
2022-09-23T06:21:55.217Z,101376.44
2022-09-23T06:24:23.981Z,101384.81
2022-09-23T06:26:53.566Z,101377.44
2022-09-23T06:29:19.851Z,101375.38
2022-09-23T06:31:48.574Z,101374.13
2022-09-23T06:34:16.362Z,101374.56
2022-09-23T06:36:45.539Z,101369.00
2022-09-23T06:39:12.842Z,101372.09
2022-09-23T06:41:39.173Z,101373.63
2022-09-23T06:44:05.469Z,101377.69
2022-09-23T06:46:31.917Z,101376.44
2022-09-23T06:48:58.347Z,101378.00
2022-09-23T06:51:25.999Z,101381.09
2022-09-23T06:53:52.275Z,101386.81
2022-09-23T06:56:18.560Z,101390.75
2022-09-23T06:58:44.825Z,101383.22
2022-09-23T07:01:12.148Z,101388.13
2022-09-23T07:03:38.458Z,101387.56
2022-09-23T07:06:05.406Z,101377.53
2022-09-23T07:08:33.731Z,101379.78
2022-09-23T07:11:00.801Z,101378.50
2022-09-23T07:13:27.673Z,101384.25
2022-09-23T07:15:54.626Z,101383.56
2022-09-23T07:18:21.805Z,101386.34
2022-09-23T07:20:48.052Z,101390.81
2022-09-23T07:23:14.619Z,101387.50
2022-09-23T07:25:42.210Z,101388.50
2022-09-23T07:28:08.483Z,101388.63
2022-09-23T07:30:36.215Z,101376.31
2022-09-23T07:33:06.665Z,101373.81
2022-09-23T07:35:43.409Z,101373.22
2022-09-23T07:38:10.536Z,101379.66
2022-09-23T07:40:37.464Z,101378.78
2022-09-23T07:43:05.135Z,101375.25
2022-09-23T07:45:31.639Z,101377.06
2022-09-23T07:47:57.907Z,101379.69
2022-09-23T07:50:24.180Z,101373.34
2022-09-23T07:52:50.431Z,101381.25
2022-09-23T07:55:20.828Z,101382.38
2022-09-23T07:57:47.441Z,101378.97
2022-09-23T08:00:15.182Z,101384.38
2022-09-23T08:02:41.533Z,101388.53
2022-09-23T08:05:08.188Z,101391.81
2022-09-23T08:07:34.605Z,101391.19
2022-09-23T08:10:01.433Z,101393.31
2022-09-23T08:12:28.799Z,101389.16
2022-09-23T08:14:55.136Z,101386.25
2022-09-23T08:17:22.726Z,101391.50
2022-09-23T08:19:48.991Z,101390.72
2022-09-23T08:22:15.262Z,101390.25
2022-09-23T08:24:41.537Z,101389.81
2022-09-23T08:27:07.809Z,101392.84
2022-09-23T08:29:34.062Z,101396.72
2022-09-23T08:32:00.509Z,101400.56
2022-09-23T08:34:28.290Z,101396.63
2022-09-23T08:36:54.574Z,101395.16
2022-09-23T08:39:20.938Z,101395.53
2022-09-23T08:41:59.005Z,101396.06
2022-09-23T08:44:27.903Z,101399.22
2022-09-23T08:47:00.138Z,101393.59
2022-09-23T08:49:31.471Z,101398.13
2022-09-23T08:52:09.697Z,101395.84
2022-09-23T08:54:35.987Z,101398.69
2022-09-23T08:57:04.470Z,101397.38
2022-09-23T08:59:35.598Z,101402.25
2022-09-23T09:02:05.974Z,101395.47
2022-09-23T09:04:38.804Z,101390.31
2022-09-23T09:07:35.261Z,101389.84
2022-09-23T09:10:03.284Z,101393.69
2022-09-23T09:12:32.365Z,101400.25
2022-09-23T09:15:01.331Z,101401.41
2022-09-23T09:17:34.381Z,101394.75
2022-09-23T09:20:06.939Z,101396.13
2022-09-23T09:22:42.115Z,101389.59
2022-09-23T09:25:14.890Z,101384.63
2022-09-23T09:27:41.165Z,101383.31
2022-09-23T09:30:11.498Z,101388.81
2022-09-23T09:32:40.383Z,101386.50
2022-09-23T09:35:17.986Z,101383.69
2022-09-23T09:37:46.122Z,101376.34
2022-09-23T09:40:12.687Z,101367.19
2022-09-23T09:42:39.797Z,101364.19
2022-09-23T09:45:11.199Z,101371.22
2022-09-23T09:47:44.561Z,101364.53
2022-09-23T09:50:13.269Z,101356.00
2022-09-23T09:52:45.507Z,101360.81
2022-09-23T09:55:26.669Z,101356.41
2022-09-23T09:57:56.366Z,101351.84
2022-09-23T10:00:36.595Z,101347.63
2022-09-23T10:03:04.879Z,101336.00
2022-09-23T10:05:34.035Z,101332.94
2022-09-23T10:08:15.192Z,101339.31
2022-09-23T10:10:50.124Z,101344.19
2022-09-23T10:13:19.503Z,101342.22
2022-09-23T10:15:45.829Z,101347.53
2022-09-23T10:18:18.401Z,101350.47
2022-09-23T10:20:46.406Z,101345.22
2022-09-23T10:23:15.799Z,101350.34
2022-09-23T10:25:42.166Z,101349.06
2022-09-23T10:28:27.156Z,101346.34
2022-09-23T10:31:03.964Z,101342.28
2022-09-23T10:33:31.211Z,101350.13
2022-09-23T10:35:58.979Z,101351.34
2022-09-23T10:38:25.275Z,101347.44
2022-09-23T10:40:53.676Z,101347.72
2022-09-23T10:43:23.883Z,101341.00
2022-09-23T10:45:50.208Z,101345.69
2022-09-23T10:48:23.565Z,101347.63
2022-09-23T10:50:51.654Z,101348.38
2022-09-23T10:53:23.877Z,101345.63
2022-09-23T10:55:59.021Z,101346.72
2022-09-23T10:58:45.815Z,101345.50
2022-09-23T11:01:20.755Z,101342.28
2022-09-23T11:03:55.087Z,101339.66
2022-09-23T11:06:25.264Z,101339.50
2022-09-23T11:09:01.736Z,101338.91
2022-09-23T11:11:32.931Z,101336.69
2022-09-23T11:14:08.200Z,101338.00
2022-09-23T11:16:41.357Z,101330.19
2022-09-23T11:19:18.241Z,101330.47
2022-09-23T11:21:50.940Z,101326.00
2022-09-23T11:24:27.326Z,101327.09
2022-09-23T11:27:01.146Z,101319.78
2022-09-23T11:29:36.000Z,101316.31
2022-09-23T11:32:09.896Z,101317.63
2022-09-23T11:34:52.540Z,101309.00
2022-09-23T11:37:23.876Z,101309.81
2022-09-23T11:39:55.871Z,101305.91
2022-09-23T11:42:24.863Z,101298.50
2022-09-23T11:44:54.171Z,101305.19
2022-09-23T11:47:22.216Z,101301.16
2022-09-23T11:49:52.351Z,101299.16
2022-09-23T11:52:21.291Z,101288.72
2022-09-23T11:54:50.970Z,101284.66
2022-09-23T11:57:22.096Z,101281.88
2022-09-23T11:59:51.647Z,101286.28
2022-09-23T12:02:24.669Z,101286.53
2022-09-23T12:04:58.373Z,101277.44
2022-09-23T12:07:28.326Z,101277.25
2022-09-23T12:09:58.704Z,101275.38
2022-09-23T12:12:31.307Z,101270.56
2022-09-23T12:14:59.734Z,101275.50
2022-09-23T12:17:36.522Z,101272.38
2022-09-23T12:20:13.933Z,101276.28
2022-09-23T12:22:47.112Z,101273.34
2022-09-23T12:25:23.235Z,101270.66
2022-09-23T12:27:52.643Z,101276.88
2022-09-23T12:30:19.942Z,101277.88
2022-09-23T12:32:46.383Z,101271.44
2022-09-23T12:35:20.586Z,101276.38
2022-09-23T12:37:46.851Z,101266.81
2022-09-23T12:40:18.306Z,101266.34
2022-09-23T12:42:46.131Z,101265.09
2022-09-23T12:45:33.864Z,101268.19
2022-09-23T12:48:00.611Z,101266.69
2022-09-23T12:50:46.167Z,101260.06
2022-09-23T12:53:31.168Z,101257.75
2022-09-23T12:55:58.470Z,101254.44
2022-09-23T12:58:56.681Z,101247.00
2022-09-23T13:01:25.147Z,101247.84
2022-09-23T13:03:53.915Z,101243.31
2022-09-23T13:06:20.225Z,101237.09
2022-09-23T13:08:47.384Z,101247.84
2022-09-23T13:11:18.714Z,101241.00
2022-09-23T13:13:45.806Z,101246.56
2022-09-23T13:16:13.263Z,101244.06
2022-09-23T13:18:57.277Z,101250.69
2022-09-23T13:21:38.428Z,101247.34
2022-09-23T13:24:17.951Z,101240.69
2022-09-23T13:26:45.186Z,101236.53
2022-09-23T13:29:16.143Z,101243.97
2022-09-23T13:31:42.612Z,101240.19
2022-09-23T13:34:12.394Z,101231.25
2022-09-23T13:36:43.046Z,101233.88
2022-09-23T13:39:23.071Z,101238.81
2022-09-23T13:41:51.756Z,101240.03
2022-09-23T13:44:18.904Z,101231.28
2022-09-23T13:46:47.160Z,101235.38
2022-09-23T13:49:20.767Z,101232.06
2022-09-23T13:51:47.061Z,101227.25
2022-09-23T13:54:26.463Z,101229.66
2022-09-23T13:56:52.773Z,101230.09
2022-09-23T13:59:23.663Z,101225.91
2022-09-23T14:01:50.096Z,101225.91
2022-09-23T14:04:22.726Z,101222.41
2022-09-23T14:06:49.287Z,101224.63
2022-09-23T14:09:15.936Z,101223.41
2022-09-23T14:11:43.901Z,101217.59
2022-09-23T14:14:13.325Z,101221.50
2022-09-23T14:16:40.752Z,101212.81
2022-09-23T14:19:07.232Z,101212.53
2022-09-23T14:21:34.259Z,101210.88
2022-09-23T14:24:06.027Z,101211.28
2022-09-23T14:26:32.352Z,101214.31
2022-09-23T14:29:00.184Z,101201.47
2022-09-23T14:31:26.582Z,101201.84
2022-09-23T14:33:52.895Z,101202.22
2022-09-23T14:36:19.245Z,101195.56
2022-09-23T14:38:45.566Z,101193.28
2022-09-23T14:41:22.628Z,101193.84
2022-09-23T14:43:50.513Z,101189.03
2022-09-23T14:46:19.409Z,101191.28
2022-09-23T14:48:52.670Z,101195.16
2022-09-23T14:51:19.020Z,101183.78
2022-09-23T14:53:45.555Z,101177.13
2022-09-23T14:56:13.518Z,101181.47
2022-09-23T14:58:48.120Z,101174.25
2022-09-23T15:01:25.924Z,101165.19
2022-09-23T15:03:52.733Z,101168.69
2022-09-23T15:06:19.158Z,101174.72
2022-09-23T15:08:45.478Z,101172.88
2022-09-23T15:11:11.846Z,101162.69
2022-09-23T15:13:39.621Z,101169.06
2022-09-23T15:16:06.254Z,101168.63
2022-09-23T15:18:35.532Z,101162.63
2022-09-23T15:21:03.180Z,101162.97
2022-09-23T15:23:33.460Z,101157.19
2022-09-23T15:26:02.133Z,101163.56
2022-09-23T15:28:28.386Z,101162.91
2022-09-23T15:30:54.668Z,101168.28
2022-09-23T15:33:20.931Z,101165.59
2022-09-23T15:35:48.710Z,101169.94
2022-09-23T15:38:15.017Z,101167.25
2022-09-23T15:40:41.743Z,101168.94
2022-09-23T15:43:15.596Z,101172.63
2022-09-23T15:45:46.927Z,101167.25
2022-09-23T15:48:14.756Z,101170.13
2022-09-23T15:50:41.213Z,101173.00
2022-09-23T15:53:12.829Z,101172.31
2022-09-23T15:55:39.131Z,101156.59
2022-09-23T15:58:05.387Z,101161.34
2022-09-23T16:00:32.471Z,101161.50
2022-09-23T16:02:58.745Z,101160.03
2022-09-23T16:05:26.994Z,101161.41
2022-09-23T16:07:53.279Z,101166.34
2022-09-23T16:10:22.084Z,101152.47
2022-09-23T16:12:48.805Z,101155.50
2022-09-23T16:15:17.007Z,101154.22
2022-09-23T16:17:43.347Z,101155.44
2022-09-23T16:20:09.862Z,101153.28
2022-09-23T16:22:36.434Z,101156.38
2022-09-23T16:25:02.728Z,101151.38
2022-09-23T16:27:30.373Z,101154.41
2022-09-23T16:29:56.635Z,101153.09
2022-09-23T16:32:22.942Z,101149.16
2022-09-23T16:34:49.238Z,101148.31
2022-09-23T16:37:15.511Z,101147.84
2022-09-23T16:39:41.812Z,101150.91
2022-09-23T16:42:08.084Z,101141.56
2022-09-23T16:44:35.755Z,101142.94
2022-09-23T16:47:02.037Z,101140.66
2022-09-23T16:49:28.325Z,101144.69
2022-09-23T16:51:54.595Z,101142.53
2022-09-23T16:54:20.940Z,101142.09
2022-09-23T16:56:47.216Z,101145.97
2022-09-23T16:59:13.977Z,101154.53
2022-09-23T17:01:42.045Z,101155.09
2022-09-23T17:04:08.616Z,101155.47
2022-09-23T17:06:34.913Z,101150.44
2022-09-23T17:09:01.277Z,101155.97
2022-09-23T17:11:32.097Z,101152.03
2022-09-23T17:14:00.198Z,101145.31
2022-09-23T17:16:27.279Z,101145.50
2022-09-23T17:18:55.518Z,101152.88
2022-09-23T17:21:22.370Z,101148.75
2022-09-23T17:23:48.639Z,101147.41
2022-09-23T17:26:14.906Z,101144.09
2022-09-23T17:28:41.182Z,101133.72
2022-09-23T17:31:08.009Z,101134.09
2022-09-23T17:33:34.793Z,101134.47
2022-09-23T17:36:05.291Z,101136.47
2022-09-23T17:38:31.551Z,101136.03
2022-09-23T17:40:58.042Z,101129.19
2022-09-23T17:43:24.306Z,101134.03
2022-09-23T17:45:51.201Z,101127.03
2022-09-23T17:48:17.567Z,101135.22
2022-09-23T17:50:43.852Z,101133.78
2022-09-23T17:53:11.453Z,101127.75
2022-09-23T17:55:37.754Z,101125.25
2022-09-23T17:58:04.028Z,101131.63
2022-09-23T18:00:30.458Z,101133.81
2022-09-23T18:02:56.807Z,101135.66
2022-09-23T18:05:23.085Z,101135.00
2022-09-23T18:07:49.335Z,101132.34
2022-09-23T18:10:16.967Z,101137.03
2022-09-23T18:12:43.263Z,101129.00
2022-09-23T18:15:09.931Z,101127.34
2022-09-23T18:17:36.192Z,101130.00
2022-09-23T18:20:02.599Z,101132.84
2022-09-23T18:22:28.871Z,101124.00
2022-09-23T18:24:55.135Z,101128.69
2022-09-23T18:27:22.719Z,101128.03
2022-09-23T18:29:48.983Z,101131.06
2022-09-23T18:32:15.337Z,101133.94
2022-09-23T18:34:41.650Z,101131.44
2022-09-23T18:37:15.290Z,101132.59
2022-09-23T18:39:42.474Z,101129.25
2022-09-23T18:42:08.740Z,101136.47
2022-09-23T18:44:36.370Z,101140.13
2022-09-23T18:47:02.661Z,101139.31
2022-09-23T18:49:28.935Z,101143.84
2022-09-23T18:51:56.038Z,101139.50
2022-09-23T18:54:22.868Z,101144.03
2022-09-23T18:56:49.318Z,101146.69
2022-09-23T18:59:16.331Z,101145.84
2022-09-23T19:01:44.231Z,101150.38
2022-09-23T19:04:10.645Z,101145.84
2022-09-23T19:06:36.976Z,101144.19
2022-09-23T19:09:04.394Z,101155.72
2022-09-23T19:11:30.859Z,101149.53
2022-09-23T19:13:58.211Z,101149.53
2022-09-23T19:16:25.097Z,101153.22
2022-09-23T19:18:52.885Z,101152.38
2022-09-23T19:21:20.032Z,101155.22
2022-09-23T19:23:47.001Z,101149.38
2022-09-23T19:26:14.320Z,101147.72
2022-09-23T19:28:40.615Z,101152.25
2022-09-23T19:31:10.163Z,101147.72
2022-09-23T19:33:36.478Z,101156.78
2022-09-23T19:36:04.420Z,101154.28
2022-09-23T19:38:30.749Z,101150.78
2022-09-23T19:40:57.026Z,101154.44
2022-09-23T19:43:23.353Z,101150.78
2022-09-23T19:45:52.918Z,101149.75
2022-09-23T19:48:19.207Z,101156.78
2022-09-23T19:50:46.584Z,101155.56
2022-09-23T19:53:14.210Z,101153.56
2022-09-23T19:55:40.827Z,101158.22
2022-09-23T19:58:07.088Z,101152.22
2022-09-23T20:00:34.348Z,101152.56
2022-09-23T20:03:00.658Z,101155.41
2022-09-23T20:05:26.940Z,101152.91
2022-09-23T20:07:53.257Z,101152.59
2022-09-23T20:10:21.201Z,101147.59
2022-09-23T20:12:47.491Z,101147.94
2022-09-23T20:15:14.342Z,101142.97
2022-09-23T20:17:40.628Z,101139.63
2022-09-23T20:20:07.474Z,101130.44
2022-09-23T20:22:33.790Z,101132.28
2022-09-23T20:25:00.478Z,101131.66
2022-09-23T20:27:28.453Z,101136.34
2022-09-23T20:29:54.729Z,101129.66
2022-09-23T20:32:21.008Z,101131.63
2022-09-23T20:34:47.263Z,101136.31
2022-09-23T20:37:13.561Z,101135.69
2022-09-23T20:39:39.842Z,101136.00
2022-09-23T20:42:06.125Z,101133.34
2022-09-23T20:44:33.720Z,101129.16
2022-09-23T20:47:00.073Z,101127.50
2022-09-23T20:49:26.439Z,101131.19
2022-09-23T20:51:52.842Z,101129.72
2022-09-23T20:54:19.372Z,101125.38
2022-09-23T20:56:45.792Z,101121.88
2022-09-23T20:59:12.263Z,101116.69
2022-09-23T21:01:40.317Z,101121.38
2022-09-23T21:04:06.838Z,101125.22
2022-09-23T21:06:33.784Z,101120.22
2022-09-23T21:09:00.074Z,101117.91
2022-09-23T21:11:26.350Z,101109.22
2022-09-23T21:13:52.630Z,101111.06
2022-09-23T21:16:20.000Z,101106.03
2022-09-23T21:18:48.394Z,101106.03
2022-09-23T21:21:14.984Z,101100.22
2022-09-23T21:23:41.809Z,101104.75
2022-09-23T21:26:09.064Z,101111.91
2022-09-23T21:28:35.787Z,101106.56
2022-09-23T21:31:03.655Z,101113.59
2022-09-23T21:33:29.951Z,101110.09
2022-09-23T21:35:58.520Z,101113.59
2022-09-23T21:38:24.824Z,101105.56
2022-09-23T21:40:56.931Z,101109.09
2022-09-23T21:43:23.260Z,101110.09
2022-09-23T21:45:49.553Z,101106.75
2022-09-23T21:48:15.824Z,101103.41
2022-09-23T21:50:42.129Z,101100.91
2022-09-23T21:53:09.716Z,101098.41
2022-09-23T21:55:36.120Z,101107.41
2022-09-23T21:58:02.391Z,101104.94
2022-09-23T22:00:28.681Z,101110.28
2022-09-23T22:02:54.987Z,101109.63
2022-09-23T22:05:21.251Z,101106.44
2022-09-23T22:07:47.535Z,101109.09
2022-09-23T22:10:15.198Z,101099.44
2022-09-23T22:12:41.459Z,101100.59
2022-09-23T22:15:08.260Z,101103.47
2022-09-23T22:17:34.548Z,101095.63
2022-09-23T22:20:00.929Z,101094.94
2022-09-23T22:22:27.186Z,101102.13
2022-09-23T22:24:53.472Z,101104.13
2022-09-23T22:27:21.082Z,101104.47
2022-09-23T22:29:47.669Z,101104.63
2022-09-23T22:32:13.949Z,101094.97
2022-09-23T22:34:55.641Z,101096.16
2022-09-23T22:37:24.383Z,101092.81
2022-09-23T22:39:50.962Z,101093.13
2022-09-23T22:42:17.367Z,101089.16
2022-09-23T22:44:44.979Z,101089.31
2022-09-23T22:47:11.248Z,101081.47
2022-09-23T22:49:37.540Z,101087.81
2022-09-23T22:52:04.275Z,101087.81
2022-09-23T22:54:33.929Z,101082.81
2022-09-23T22:57:00.618Z,101084.66
2022-09-23T22:59:26.868Z,101089.16
2022-09-23T23:01:54.564Z,101098.16
2022-09-23T23:04:20.897Z,101097.50
2022-09-23T23:06:47.159Z,101098.34
2022-09-23T23:09:14.959Z,101093.19
2022-09-23T23:11:41.584Z,101094.34
2022-09-23T23:14:08.087Z,101093.50
2022-09-23T23:16:34.428Z,101090.00
2022-09-23T23:19:02.912Z,101090.16
2022-09-23T23:21:29.201Z,101088.50
2022-09-23T23:23:55.540Z,101087.19
2022-09-23T23:26:23.146Z,101085.50
2022-09-23T23:28:50.363Z,101077.50
2022-09-23T23:31:17.571Z,101075.69
2022-09-23T23:33:44.340Z,101072.84
2022-09-23T23:36:13.085Z,101088.66
2022-09-23T23:38:40.623Z,101082.50
2022-09-23T23:41:08.175Z,101086.81
2022-09-23T23:43:34.460Z,101079.81
2022-09-23T23:46:00.784Z,101071.66
2022-09-23T23:48:27.930Z,101075.31
2022-09-23T23:50:55.055Z,101079.00
2022-09-23T23:53:22.762Z,101069.97
2022-09-23T23:55:49.046Z,101069.97
2022-09-23T23:58:15.748Z,101065.47
